Sea Explorer — 5BQC3 — position and weather

sailwx.info

Track history (hours):
 
Tides and Currents Weather Stations Pressure Air Temp Water Temp Dewpoint Dewpoint Depression Visibility Wind Speed Wind Dir Waves Ship Positions

Sea Explorer

Last reported at 2018-Feb-15 15:59 UTC. Time now 2018-Feb-17 21:38 UTC.
Position N 39°32' W 009°50'.

Length 110 m; draft 7.9 m.

Type: Cargo ship. MMSI: 210112000.

Date/timePositionNaut miles runAvg speedWind from/ knotsBaromVisibWave heightAir tempDewpointWater temp
2018-Feb-15 15:59N 39°32' W 009°50'611.5
2018-Feb-15 15:30N 39°27' W 009°50'611.7
2018-Feb-15 15:00N 39°21' W 009°50'612.0
2018-Feb-15 14:30N 39°15' W 009°50'611.8
2018-Feb-15 14:00N 39°09' W 009°51'611.7
2018-Feb-15 13:30N 39°03' W 009°51'611.8
2018-Feb-15 13:00N 38°57' W 009°51'611.9
2018-Feb-15 12:30N 38°51' W 009°51'611.9
2018-Feb-15 12:00N 38°45' W 009°51'611.6
2018-Feb-15 11:30N 38°40' W 009°50'611.9
2018-Feb-15 11:00N 38°34' W 009°48'611.5
2018-Feb-15 10:30N 38°28' W 009°47'611.1
2018-Feb-15 10:00N 38°23' W 009°45'611.1
2018-Feb-15 09:30N 38°18' W 009°43'610.9
2018-Feb-15 08:57N 38°12' W 009°42'511.0
2018-Feb-15 08:29N 38°07' W 009°40'511.2
2018-Feb-15 08:00N 38°01' W 009°38'611.1
2018-Feb-15 07:30N 37°56' W 009°37'711.0
2018-Feb-15 06:50N 37°49' W 009°35'1211.0
2018-Feb-15 05:46N 37°37' W 009°32'21410.3
2018-Feb-14 09:02N 35°58' W 005°34'2 9.2
2018-Feb-14 08:47N 35°59' W 005°32'2 9.0
2018-Feb-14 08:30N 35°59' W 005°29'4 7.6
2018-Feb-14 08:00N 36°00' W 005°24'4 8.5
2018-Feb-14 07:30N 36°01' W 005°19'4 9.0
2018-Feb-14 07:00N 36°02' W 005°14'  
2018-Feb-11 21:33N 36°00' W 005°13'115.0
2018-Feb-11 21:30N 36°00' W 005°14'714.8
2018-Feb-11 21:00N 35°58' W 005°22'  
2018-Feb-07 09:22N 38°58' W 010°06'410.7
2018-Feb-07 09:00N 39°02' W 010°06'610.6
2018-Feb-07 08:29N 39°07' W 010°06'  
Track history (hours):
 
Tides and Currents Weather Stations Pressure Air Temp Water Temp Dewpoint Dewpoint Depression Visibility Wind Speed Wind Dir Waves Ship Positions

Sea Explorer

Last reported at 2018-Feb-15 15:59 UTC. Time now 2018-Feb-17 21:38 UTC.
Position N 39°32' W 009°50'.

Length 110 m; draft 7.9 m.

Type: Cargo ship. MMSI: 210112000.

Date/timePositionNaut miles runAvg speedWind from/ knotsBaromVisibWave heightAir tempDewpointWater temp
2018-Feb-15 15:59N 39°32' W 009°50'611.5
2018-Feb-15 15:30N 39°27' W 009°50'611.7
2018-Feb-15 15:00N 39°21' W 009°50'612.0
2018-Feb-15 14:30N 39°15' W 009°50'611.8
2018-Feb-15 14:00N 39°09' W 009°51'611.7
2018-Feb-15 13:30N 39°03' W 009°51'611.8
2018-Feb-15 13:00N 38°57' W 009°51'611.9
2018-Feb-15 12:30N 38°51' W 009°51'611.9
2018-Feb-15 12:00N 38°45' W 009°51'611.6
2018-Feb-15 11:30N 38°40' W 009°50'611.9
2018-Feb-15 11:00N 38°34' W 009°48'611.5
2018-Feb-15 10:30N 38°28' W 009°47'611.1
2018-Feb-15 10:00N 38°23' W 009°45'611.1
2018-Feb-15 09:30N 38°18' W 009°43'610.9
2018-Feb-15 08:57N 38°12' W 009°42'511.0
2018-Feb-15 08:29N 38°07' W 009°40'511.2
2018-Feb-15 08:00N 38°01' W 009°38'611.1
2018-Feb-15 07:30N 37°56' W 009°37'711.0
2018-Feb-15 06:50N 37°49' W 009°35'1211.0
2018-Feb-15 05:46N 37°37' W 009°32'21410.3
2018-Feb-14 09:02N 35°58' W 005°34'2 9.2
2018-Feb-14 08:47N 35°59' W 005°32'2 9.0
2018-Feb-14 08:30N 35°59' W 005°29'4 7.6
2018-Feb-14 08:00N 36°00' W 005°24'4 8.5
2018-Feb-14 07:30N 36°01' W 005°19'4 9.0
2018-Feb-14 07:00N 36°02' W 005°14'  
2018-Feb-11 21:33N 36°00' W 005°13'115.0
2018-Feb-11 21:30N 36°00' W 005°14'714.8
2018-Feb-11 21:00N 35°58' W 005°22'  
2018-Feb-07 09:22N 38°58' W 010°06'410.7
2018-Feb-07 09:00N 39°02' W 010°06'610.6
2018-Feb-07 08:29N 39°07' W 010°06'  

Dump ship's entire track history